createdAt,value
2022-11-16T00:00:33.675Z,32.47
2022-11-16T00:02:59.932Z,30.65
2022-11-16T00:05:28.478Z,31.45
2022-11-16T00:07:54.896Z,29.92
2022-11-16T00:10:21.104Z,30.52
2022-11-16T00:12:47.346Z,33.92
2022-11-16T00:15:13.698Z,31.75
2022-11-16T00:17:39.925Z,31.63
2022-11-16T00:20:06.143Z,31.65
2022-11-16T00:22:32.389Z,32.00
2022-11-16T00:24:58.711Z,29.80
2022-11-16T00:27:25.000Z,31.55
2022-11-16T00:29:51.238Z,29.98
2022-11-16T00:32:17.453Z,30.35
2022-11-16T00:34:43.666Z,32.78
2022-11-16T00:37:09.890Z,34.33
2022-11-16T00:39:36.144Z,32.03
2022-11-16T00:42:02.425Z,29.95
2022-11-16T00:44:28.631Z,32.10
2022-11-16T00:46:54.855Z,30.98
2022-11-16T00:49:21.073Z,29.90
2022-11-16T00:51:47.343Z,32.53
2022-11-16T00:54:13.598Z,30.58
2022-11-16T00:56:39.848Z,30.73
2022-11-16T00:59:06.075Z,33.13
2022-11-16T01:01:32.331Z,31.20
2022-11-16T01:03:58.588Z,34.10
2022-11-16T01:06:24.872Z,32.00
2022-11-16T01:08:51.124Z,32.88
2022-11-16T01:11:36.146Z,28.80
2022-11-16T01:14:02.347Z,34.30
2022-11-16T01:16:31.778Z,32.75
2022-11-16T01:18:58.004Z,32.15
2022-11-16T01:21:24.348Z,33.08
2022-11-16T01:23:50.552Z,32.65
2022-11-16T01:26:16.783Z,28.77
2022-11-16T01:28:42.983Z,31.92
2022-11-16T01:31:09.218Z,32.30
2022-11-16T01:33:35.517Z,32.65
2022-11-16T01:36:01.806Z,33.00
2022-11-16T01:38:29.939Z,30.63
2022-11-16T01:40:56.480Z,34.42
2022-11-16T08:18:20.257Z,38.67
2022-11-16T08:20:46.622Z,34.70
2022-11-16T08:23:13.024Z,32.05
2022-11-16T08:25:39.316Z,32.20
2022-11-16T08:28:05.745Z,35.30
2022-11-16T08:30:32.024Z,26.75
2022-11-16T08:32:58.313Z,30.15
2022-11-16T08:35:24.673Z,30.52
2022-11-16T08:37:50.974Z,30.05
2022-11-16T08:40:17.307Z,31.50
2022-11-16T08:42:44.093Z,45.45
2022-11-16T08:45:10.486Z,33.67
2022-11-16T08:47:36.791Z,43.55
2022-11-16T08:50:03.543Z,38.05
2022-11-16T08:52:29.821Z,33.10
2022-11-16T08:54:59.143Z,41.53
2022-11-16T08:57:25.420Z,27.80
2022-11-16T08:59:51.699Z,29.13
2022-11-16T09:02:25.226Z,36.55
2022-11-16T09:04:51.625Z,33.50
2022-11-16T09:07:17.953Z,33.08
2022-11-16T09:09:44.313Z,32.08
2022-11-16T09:12:10.576Z,30.02
2022-11-16T09:14:36.856Z,29.60
2022-11-16T09:17:03.157Z,33.58
2022-11-16T09:19:29.471Z,32.33
2022-11-16T09:21:55.867Z,29.63
2022-11-16T09:24:22.143Z,27.83
2022-11-16T09:26:48.427Z,28.38
2022-11-16T09:29:14.712Z,26.88
2022-11-16T09:31:40.999Z,29.48
2022-11-16T09:34:07.443Z,29.52
2022-11-16T09:36:33.730Z,28.23
2022-11-16T09:41:47.218Z,26.25
2022-11-16T09:44:13.553Z,25.33
2022-11-16T09:46:39.814Z,29.83
2022-11-16T09:49:10.517Z,29.10
2022-11-16T09:51:43.606Z,27.13
2022-11-16T09:54:10.023Z,26.35
2022-11-16T09:56:36.791Z,27.63
2022-11-16T09:59:03.208Z,26.05
2022-11-16T10:01:29.579Z,26.23
2022-11-16T10:03:55.901Z,27.52
2022-11-16T10:06:22.234Z,29.52
2022-11-16T10:08:48.575Z,27.35
2022-11-16T10:11:14.861Z,29.70
2022-11-16T10:13:41.154Z,27.08
2022-11-16T10:16:07.757Z,25.70
2022-11-16T10:18:34.051Z,29.35
2022-11-16T10:21:00.415Z,27.15
2022-11-16T10:23:26.695Z,23.25
2022-11-16T10:25:53.329Z,25.58
2022-11-16T10:28:19.677Z,26.80
2022-11-16T10:30:45.967Z,25.17
2022-11-16T10:33:12.391Z,24.38
2022-11-16T10:35:39.600Z,27.52
2022-11-16T10:38:08.993Z,28.20
2022-11-16T10:40:35.312Z,26.88
2022-11-16T10:43:01.667Z,26.52
2022-11-16T10:45:27.949Z,25.75
2022-11-16T10:47:54.279Z,27.65
2022-11-16T10:50:20.746Z,27.23
2022-11-16T10:52:47.087Z,27.77
2022-11-16T10:55:13.369Z,23.52
2022-11-16T10:57:39.645Z,28.50
2022-11-16T11:00:12.540Z,27.02
2022-11-16T11:02:39.838Z,33.08
2022-11-16T11:05:06.111Z,27.60
2022-11-16T11:07:32.493Z,29.77
2022-11-16T11:09:58.870Z,28.88
2022-11-16T11:12:40.568Z,28.77
2022-11-16T11:15:07.027Z,26.05
2022-11-16T11:17:33.315Z,24.70
2022-11-16T11:20:00.504Z,26.58
2022-11-16T11:22:26.819Z,26.55
2022-11-16T11:24:53.094Z,32.13
2022-11-16T11:27:19.396Z,29.05
2022-11-16T11:29:45.789Z,26.88
2022-11-16T11:35:03.513Z,28.13
2022-11-16T11:37:30.442Z,26.23
2022-11-16T11:39:56.733Z,27.80
2022-11-16T11:42:23.103Z,27.00
2022-11-16T11:44:50.417Z,28.73
2022-11-16T11:47:50.789Z,29.52
2022-11-16T11:50:03.039Z,27.15
2022-11-16T11:52:29.362Z,24.70
2022-11-16T11:54:55.767Z,29.02
2022-11-16T11:57:23.123Z,28.02
2022-11-16T11:59:49.522Z,29.17
2022-11-16T12:02:15.980Z,26.85
2022-11-16T12:04:42.304Z,26.95
2022-11-16T12:07:08.658Z,27.92
2022-11-16T12:09:34.966Z,27.80
2022-11-16T12:12:01.286Z,29.02
2022-11-16T12:14:27.567Z,29.15
2022-11-16T12:16:53.859Z,24.40
2022-11-16T12:19:20.163Z,26.45
2022-11-16T12:21:46.696Z,26.42
2022-11-16T12:24:13.067Z,32.00
2022-11-16T12:26:39.692Z,30.38
2022-11-16T12:29:05.960Z,33.03
2022-11-16T12:31:32.254Z,28.38
2022-11-16T12:33:58.603Z,31.17
2022-11-16T12:36:24.920Z,29.15
2022-11-16T12:38:51.240Z,23.30
2022-11-16T12:41:17.614Z,33.65
2022-11-16T12:43:43.893Z,30.38
2022-11-16T12:46:10.425Z,27.67
2022-11-16T12:48:36.728Z,29.00
2022-11-16T12:51:02.993Z,28.23
2022-11-16T12:53:29.339Z,33.33
2022-11-16T12:55:55.601Z,32.17
2022-11-16T12:58:21.948Z,27.98
2022-11-16T13:00:48.334Z,31.25
2022-11-16T13:03:14.720Z,27.15
2022-11-16T13:05:41.050Z,36.78
2022-11-16T13:08:07.816Z,33.83
2022-11-16T13:10:34.112Z,28.33
2022-11-16T13:13:29.531Z,29.73
2022-11-16T13:15:47.908Z,29.00
2022-11-16T13:18:14.238Z,26.67
2022-11-16T13:20:40.579Z,25.20
2022-11-16T13:23:06.932Z,28.30
2022-11-16T13:25:33.213Z,24.15
2022-11-16T13:27:59.482Z,24.08
2022-11-16T13:30:25.760Z,28.15
2022-11-16T13:32:52.054Z,26.55
2022-11-16T13:35:18.544Z,31.83
2022-11-16T13:37:44.917Z,30.90
2022-11-16T13:40:11.338Z,32.58
2022-11-16T13:42:38.194Z,29.45
2022-11-16T13:45:04.475Z,33.60
2022-11-16T13:47:30.936Z,30.17
2022-11-16T13:49:57.420Z,36.25
2022-11-16T13:52:31.566Z,31.38
2022-11-16T13:55:06.625Z,34.92
2022-11-16T13:57:32.928Z,32.55
2022-11-16T13:59:59.204Z,34.83
2022-11-16T14:02:25.566Z,32.33
2022-11-16T14:04:51.838Z,32.90
2022-11-16T14:07:18.245Z,35.28
2022-11-16T14:09:44.647Z,33.22
2022-11-16T14:12:10.947Z,35.20
2022-11-16T14:14:37.216Z,34.95
2022-11-16T14:17:03.547Z,35.30
2022-11-16T14:19:29.857Z,33.78
2022-11-16T14:21:56.131Z,34.20
2022-11-16T14:24:22.417Z,34.50
2022-11-16T14:26:48.834Z,36.38
2022-11-16T14:29:15.489Z,33.85
2022-11-16T14:31:41.781Z,40.00
2022-11-16T14:34:08.213Z,37.42
2022-11-16T14:36:34.499Z,37.88
2022-11-16T14:39:00.937Z,33.47
2022-11-16T14:41:27.213Z,33.53
2022-11-16T14:43:53.506Z,41.70
2022-11-16T14:46:19.768Z,36.53
2022-11-16T14:48:46.119Z,33.42
2022-11-16T14:51:12.486Z,33.35
2022-11-16T14:53:38.870Z,34.10
2022-11-16T14:56:05.268Z,34.28
2022-11-16T14:58:31.907Z,33.13
2022-11-16T15:00:58.169Z,32.35
2022-11-16T15:03:24.596Z,35.03
2022-11-16T15:05:50.970Z,33.50
2022-11-16T15:08:17.517Z,35.75
2022-11-16T15:10:46.925Z,32.75
2022-11-16T15:13:15.774Z,36.65
2022-11-16T15:15:42.057Z,38.95
2022-11-16T15:18:08.525Z,33.42
2022-11-16T15:20:34.906Z,31.77
2022-11-16T15:23:01.219Z,33.28
2022-11-16T15:25:27.583Z,34.20
2022-11-16T15:27:53.917Z,35.13
2022-11-16T15:30:20.218Z,34.78
2022-11-16T15:32:46.532Z,32.05
2022-11-16T15:35:12.867Z,30.65
2022-11-16T15:37:39.139Z,34.33
2022-11-16T15:40:05.482Z,35.00
2022-11-16T15:42:31.833Z,31.55
2022-11-16T15:44:58.109Z,41.15
2022-11-16T15:47:24.379Z,34.80
2022-11-16T15:49:52.928Z,35.13
2022-11-16T15:52:19.319Z,31.63
2022-11-16T15:55:04.041Z,31.33
2022-11-16T15:57:30.338Z,32.55
2022-11-16T15:59:57.099Z,36.03
2022-11-16T16:02:23.401Z,31.15
2022-11-16T16:04:49.700Z,36.50
2022-11-16T16:07:16.409Z,35.58
2022-11-16T16:09:42.695Z,34.00
2022-11-16T16:12:08.970Z,32.42
2022-11-16T16:14:35.244Z,36.13
2022-11-16T16:17:01.523Z,33.35
2022-11-16T16:19:27.838Z,35.60
2022-11-16T16:21:54.107Z,32.53
2022-11-16T16:24:20.457Z,32.60
2022-11-16T16:26:46.766Z,34.88
2022-11-16T16:29:13.032Z,36.08
2022-11-16T16:31:39.325Z,36.22
2022-11-16T16:34:05.609Z,34.40
2022-11-16T16:36:31.922Z,38.30
2022-11-16T16:38:58.412Z,30.70
2022-11-16T16:41:24.940Z,35.30
2022-11-16T16:43:51.238Z,34.40
2022-11-16T16:46:17.639Z,33.50
2022-11-16T16:48:44.843Z,35.78
2022-11-16T16:51:11.251Z,32.38
2022-11-16T16:53:37.513Z,33.67
2022-11-16T16:56:03.845Z,35.58
2022-11-16T16:58:30.124Z,35.10
2022-11-16T17:01:01.139Z,30.40
2022-11-16T17:03:27.842Z,37.05
2022-11-16T17:05:54.318Z,33.50
2022-11-16T17:08:21.068Z,34.05
2022-11-16T17:10:47.339Z,34.67
2022-11-16T17:13:13.610Z,36.30
2022-11-16T17:15:39.874Z,37.38
2022-11-16T17:18:06.158Z,36.67
2022-11-16T17:20:32.457Z,36.15
2022-11-16T17:22:58.761Z,36.45
2022-11-16T17:25:25.039Z,32.28
2022-11-16T17:27:51.321Z,35.85
2022-11-16T17:30:17.586Z,36.60
2022-11-16T17:32:43.920Z,35.00
2022-11-16T17:35:10.350Z,36.55
2022-11-16T17:37:36.588Z,37.40
2022-11-16T17:40:02.865Z,35.33
2022-11-16T17:42:29.141Z,36.00
2022-11-16T17:44:55.486Z,33.35
2022-11-16T17:47:24.926Z,33.22
2022-11-16T17:49:51.476Z,35.90
2022-11-16T17:52:22.191Z,34.17
2022-11-16T17:54:48.821Z,38.42
2022-11-16T17:57:15.266Z,35.83
2022-11-16T17:59:41.642Z,33.13
2022-11-16T18:02:07.925Z,33.10
2022-11-16T18:04:34.253Z,37.72
2022-11-16T18:07:01.225Z,33.65
2022-11-16T18:09:27.525Z,32.50
2022-11-16T18:11:53.800Z,33.92
2022-11-16T18:14:20.075Z,31.63
2022-11-16T18:16:47.889Z,33.65
2022-11-16T18:19:14.215Z,32.92
2022-11-16T18:21:40.511Z,37.50
2022-11-16T18:24:07.147Z,34.33
2022-11-16T18:26:33.441Z,36.20
2022-11-16T18:28:59.745Z,34.80
2022-11-16T18:31:26.008Z,34.30
2022-11-16T18:33:52.392Z,35.38
2022-11-16T18:36:18.689Z,39.53
2022-11-16T18:38:45.007Z,35.35
2022-11-16T18:41:11.276Z,36.33
2022-11-16T18:43:37.812Z,34.28
2022-11-16T18:46:04.320Z,33.40
2022-11-16T18:48:30.592Z,36.58
2022-11-16T18:50:56.896Z,35.47
2022-11-16T18:53:23.189Z,35.03
2022-11-16T18:55:57.629Z,35.67
2022-11-16T18:58:49.199Z,31.92
2022-11-16T19:01:11.085Z,34.55
2022-11-16T19:03:37.713Z,36.30
2022-11-16T19:06:04.088Z,32.85
2022-11-16T19:08:30.351Z,33.58
2022-11-16T19:10:56.663Z,33.58
2022-11-16T19:13:22.937Z,32.72
2022-11-16T19:15:50.094Z,33.53
2022-11-16T19:18:21.777Z,32.83
2022-11-16T19:20:48.413Z,33.50
2022-11-16T19:23:14.828Z,35.85
2022-11-16T19:25:41.101Z,30.65
2022-11-16T19:28:10.793Z,29.05
2022-11-16T19:30:37.068Z,32.75
2022-11-16T19:33:04.033Z,29.25
2022-11-16T19:35:30.296Z,30.48
2022-11-16T19:37:57.492Z,31.67
2022-11-16T19:40:25.168Z,29.73
2022-11-16T19:42:51.677Z,28.55
2022-11-16T19:45:17.968Z,31.30
2022-11-16T19:47:44.550Z,30.52
2022-11-16T19:50:11.720Z,31.60
2022-11-16T19:52:38.212Z,29.90
2022-11-16T19:55:09.994Z,28.98
2022-11-16T19:57:36.282Z,31.35
2022-11-16T20:00:02.697Z,33.35
2022-11-16T20:02:29.064Z,32.63
2022-11-16T20:04:55.376Z,33.15
2022-11-16T20:07:21.756Z,32.72
2022-11-16T20:09:53.091Z,30.60
2022-11-16T20:12:19.731Z,31.77
2022-11-16T20:14:46.182Z,32.22
2022-11-16T20:17:13.241Z,32.80
2022-11-16T20:19:39.439Z,29.38
2022-11-16T20:22:08.351Z,32.20
2022-11-16T20:24:34.662Z,30.25
2022-11-16T20:27:00.907Z,31.40
2022-11-16T20:29:28.804Z,30.08
2022-11-16T20:31:55.096Z,30.63
2022-11-16T20:34:22.412Z,30.40
2022-11-16T20:36:53.829Z,29.25
2022-11-16T20:39:20.539Z,31.85
2022-11-16T20:41:47.658Z,28.90
2022-11-16T20:44:22.185Z,30.83
2022-11-16T20:46:48.952Z,32.95
2022-11-16T20:49:15.203Z,32.33
2022-11-16T20:51:41.500Z,30.25
2022-11-16T20:54:07.926Z,34.40
2022-11-16T20:56:34.382Z,31.60
2022-11-16T20:59:00.845Z,29.98
2022-11-16T21:01:33.343Z,30.50
2022-11-16T21:03:59.703Z,32.95
2022-11-16T21:06:26.260Z,33.13
2022-11-16T21:08:52.559Z,34.75
2022-11-16T21:11:18.935Z,33.63
2022-11-16T21:14:04.002Z,31.90
2022-11-16T21:16:30.284Z,29.58
2022-11-16T21:18:56.650Z,30.58
2022-11-16T21:21:22.895Z,31.83
2022-11-16T21:23:52.386Z,31.65
2022-11-16T21:26:18.662Z,33.40
2022-11-16T21:28:45.459Z,32.65
2022-11-16T21:31:11.727Z,31.85
2022-11-16T21:33:38.257Z,34.63
2022-11-16T21:36:05.001Z,31.40
2022-11-16T21:38:31.284Z,30.52
2022-11-16T21:40:57.603Z,34.25
2022-11-16T21:43:23.874Z,34.53
2022-11-16T21:45:51.048Z,34.13
2022-11-16T21:48:17.321Z,31.60
2022-11-16T21:50:43.530Z,31.85
2022-11-16T21:53:09.766Z,34.25
2022-11-16T21:55:36.008Z,31.92
2022-11-16T21:58:05.262Z,32.33
2022-11-16T22:00:31.562Z,30.63
2022-11-16T22:02:57.859Z,30.92
2022-11-16T22:05:43.075Z,32.10
2022-11-16T22:08:09.279Z,32.03
2022-11-16T22:10:35.517Z,33.83
2022-11-16T22:13:01.787Z,32.13
2022-11-16T22:15:28.121Z,34.75
2022-11-16T22:17:54.342Z,32.80
2022-11-16T22:20:21.035Z,30.15
2022-11-16T22:22:47.248Z,31.63
2022-11-16T22:25:16.856Z,31.23
2022-11-16T22:28:13.487Z,31.90
2022-11-16T22:30:29.298Z,28.58
2022-11-16T22:32:55.527Z,30.55
2022-11-16T22:35:21.745Z,33.78
2022-11-16T22:37:47.973Z,32.20
2022-11-16T22:40:17.762Z,32.65
2022-11-16T22:42:44.266Z,31.77
2022-11-16T22:45:10.492Z,32.17
2022-11-16T22:47:36.739Z,32.78
2022-11-16T22:50:02.956Z,33.30
2022-11-16T22:52:29.305Z,31.92
2022-11-16T22:54:55.507Z,33.55
2022-11-16T22:57:25.721Z,38.22
2022-11-16T22:59:51.948Z,32.35
2022-11-16T23:02:18.277Z,32.95
2022-11-16T23:04:44.628Z,31.38
2022-11-16T23:07:10.873Z,28.92
2022-11-16T23:09:37.122Z,31.23
2022-11-16T23:12:21.975Z,29.58
2022-11-16T23:15:06.917Z,29.52
2022-11-16T23:17:33.120Z,28.08
2022-11-16T23:20:18.288Z,29.20
2022-11-16T23:23:02.947Z,32.85
2022-11-16T23:25:47.741Z,30.92
2022-11-16T23:28:14.033Z,30.33
2022-11-16T23:30:40.244Z,29.60
2022-11-16T23:33:06.513Z,29.92
2022-11-16T23:35:32.723Z,31.05
2022-11-16T23:37:59.024Z,29.25
2022-11-16T23:40:25.245Z,32.17
2022-11-16T23:43:10.213Z,30.80
2022-11-16T23:45:36.457Z,31.65
2022-11-16T23:48:02.700Z,29.52
2022-11-16T23:50:28.956Z,32.95
2022-11-16T23:52:55.163Z,32.70
2022-11-16T23:55:23.041Z,32.47
2022-11-16T23:57:49.318Z,31.05
